sensor_id;sensor_type;location;lat;lon;timestamp;pressure;altitude;pressure_sealevel;temperature;humidity
41306;BME280;27051;50.376;19.152;2023-03-25T00:00:16;97073.67;;;13.63;61.79
41306;BME280;27051;50.376;19.152;2023-03-25T00:03:04;97081.23;;;13.62;61.58
41306;BME280;27051;50.376;19.152;2023-03-25T00:05:30;97083.31;;;13.58;61.59
41306;BME280;27051;50.376;19.152;2023-03-25T00:07:59;97080.44;;;13.50;61.77
41306;BME280;27051;50.376;19.152;2023-03-25T00:10:32;97081.43;;;13.48;61.75
41306;BME280;27051;50.376;19.152;2023-03-25T00:12:58;97075.56;;;13.49;61.81
41306;BME280;27051;50.376;19.152;2023-03-25T00:15:24;97081.91;;;13.53;61.66
41306;BME280;27051;50.376;19.152;2023-03-25T00:17:51;97084.69;;;13.51;61.65
41306;BME280;27051;50.376;19.152;2023-03-25T00:20:17;97089.14;;;13.47;62.07
41306;BME280;27051;50.376;19.152;2023-03-25T00:22:45;97086.27;;;13.45;61.87
41306;BME280;27051;50.376;19.152;2023-03-25T00:25:13;97089.91;;;13.45;61.93
41306;BME280;27051;50.376;19.152;2023-03-25T00:27:40;97093.83;;;13.43;61.87
41306;BME280;27051;50.376;19.152;2023-03-25T00:30:10;97090.89;;;13.40;62.03
41306;BME280;27051;50.376;19.152;2023-03-25T00:32:39;97086.40;;;13.30;62.20
41306;BME280;27051;50.376;19.152;2023-03-25T00:35:08;97092.40;;;13.27;62.03
41306;BME280;27051;50.376;19.152;2023-03-25T00:37:36;97093.38;;;13.25;61.99
41306;BME280;27051;50.376;19.152;2023-03-25T00:40:08;97095.58;;;13.30;62.18
41306;BME280;27051;50.376;19.152;2023-03-25T00:42:36;97094.64;;;13.30;62.15
41306;BME280;27051;50.376;19.152;2023-03-25T00:45:03;97095.16;;;13.26;62.24
41306;BME280;27051;50.376;19.152;2023-03-25T00:47:29;97097.13;;;13.23;62.13
41306;BME280;27051;50.376;19.152;2023-03-25T00:49:56;97096.98;;;13.21;62.22
41306;BME280;27051;50.376;19.152;2023-03-25T00:52:22;97094.05;;;13.19;62.22
41306;BME280;27051;50.376;19.152;2023-03-25T00:54:49;97089.10;;;13.16;62.18
41306;BME280;27051;50.376;19.152;2023-03-25T00:57:15;97088.77;;;13.08;62.24
41306;BME280;27051;50.376;19.152;2023-03-25T00:59:42;97085.90;;;13.06;62.44
41306;BME280;27051;50.376;19.152;2023-03-25T01:02:08;97094.14;;;13.04;62.49
41306;BME280;27051;50.376;19.152;2023-03-25T01:04:34;97105.00;;;13.04;62.68
41306;BME280;27051;50.376;19.152;2023-03-25T01:07:01;97099.91;;;13.01;62.68
41306;BME280;27051;50.376;19.152;2023-03-25T01:09:27;97097.11;;;13.00;62.64
41306;BME280;27051;50.376;19.152;2023-03-25T01:11:54;97093.80;;;12.99;62.76
41306;BME280;27051;50.376;19.152;2023-03-25T01:14:21;97094.73;;;13.00;62.61
41306;BME280;27051;50.376;19.152;2023-03-25T01:16:49;97095.66;;;13.00;62.64
41306;BME280;27051;50.376;19.152;2023-03-25T01:19:16;97093.40;;;12.95;62.45
41306;BME280;27051;50.376;19.152;2023-03-25T01:21:43;97082.59;;;12.87;62.46
41306;BME280;27051;50.376;19.152;2023-03-25T01:24:12;97084.96;;;12.85;62.20
41306;BME280;27051;50.376;19.152;2023-03-25T01:26:39;97089.51;;;12.85;62.12
41306;BME280;27051;50.376;19.152;2023-03-25T01:29:08;97089.19;;;12.85;61.83
41306;BME280;27051;50.376;19.152;2023-03-25T01:31:35;97085.64;;;12.84;61.80
41306;BME280;27051;50.376;19.152;2023-03-25T01:34:02;97075.92;;;12.81;61.60
41306;BME280;27051;50.376;19.152;2023-03-25T01:36:29;97077.45;;;12.80;61.47
41306;BME280;27051;50.376;19.152;2023-03-25T01:38:58;97073.57;;;12.71;61.29
41306;BME280;27051;50.376;19.152;2023-03-25T01:41:28;97078.41;;;12.70;61.31
41306;BME280;27051;50.376;19.152;2023-03-25T01:46:42;97085.55;;;12.67;61.09
41306;BME280;27051;50.376;19.152;2023-03-25T01:49:15;97088.34;;;12.67;60.99
41306;BME280;27051;50.376;19.152;2023-03-25T01:51:44;97081.87;;;12.66;60.79
41306;BME280;27051;50.376;19.152;2023-03-25T01:54:12;97083.16;;;12.65;60.81
41306;BME280;27051;50.376;19.152;2023-03-25T01:56:40;97084.00;;;12.64;60.81
41306;BME280;27051;50.376;19.152;2023-03-25T01:59:08;97071.92;;;12.50;60.66
41306;BME280;27051;50.376;19.152;2023-03-25T02:01:36;97070.23;;;12.51;60.76
41306;BME280;27051;50.376;19.152;2023-03-25T02:04:03;97067.30;;;12.50;60.63
41306;BME280;27051;50.376;19.152;2023-03-25T02:06:36;97068.11;;;12.56;60.79
41306;BME280;27051;50.376;19.152;2023-03-25T02:09:06;97074.20;;;12.60;60.55
41306;BME280;27051;50.376;19.152;2023-03-25T02:11:33;97069.27;;;12.59;60.51
41306;BME280;27051;50.376;19.152;2023-03-25T02:14:07;97067.36;;;12.62;60.53
41306;BME280;27051;50.376;19.152;2023-03-25T02:16:49;97065.75;;;12.63;60.47
41306;BME280;27051;50.376;19.152;2023-03-25T02:20:18;97066.45;;;12.65;60.38
41306;BME280;27051;50.376;19.152;2023-03-25T02:23:25;97071.23;;;12.66;60.29
41306;BME280;27051;50.376;19.152;2023-03-25T02:33:50;97087.63;;;12.50;60.24
41306;BME280;27051;50.376;19.152;2023-03-25T02:39:31;97093.67;;;12.32;60.28
41306;BME280;27051;50.376;19.152;2023-03-25T02:42:35;97088.42;;;12.21;60.31
41306;BME280;27051;50.376;19.152;2023-03-25T02:47:45;97091.55;;;12.18;60.40
41306;BME280;27051;50.376;19.152;2023-03-25T02:50:20;97095.94;;;12.26;60.43
41306;BME280;27051;50.376;19.152;2023-03-25T02:52:56;97095.95;;;12.28;60.48
41306;BME280;27051;50.376;19.152;2023-03-25T02:55:30;97101.09;;;12.35;60.46
41306;BME280;27051;50.376;19.152;2023-03-25T02:58:01;97099.29;;;12.33;60.30
41306;BME280;27051;50.376;19.152;2023-03-25T03:00:30;97097.35;;;12.32;60.23
41306;BME280;27051;50.376;19.152;2023-03-25T03:03:00;97097.29;;;12.34;60.30
41306;BME280;27051;50.376;19.152;2023-03-25T03:05:33;97098.73;;;12.31;60.23
41306;BME280;27051;50.376;19.152;2023-03-25T03:11:01;97101.10;;;12.28;60.28
41306;BME280;27051;50.376;19.152;2023-03-25T03:20:00;97117.39;;;12.14;60.25
41306;BME280;27051;50.376;19.152;2023-03-25T03:22:42;97120.94;;;12.06;60.25
41306;BME280;27051;50.376;19.152;2023-03-25T03:25:19;97124.13;;;11.93;60.27
41306;BME280;27051;50.376;19.152;2023-03-25T03:36:19;97134.77;;;11.96;60.18
41306;BME280;27051;50.376;19.152;2023-03-25T03:38:55;97133.15;;;11.96;60.15
41306;BME280;27051;50.376;19.152;2023-03-25T03:41:25;97136.17;;;11.97;60.15
41306;BME280;27051;50.376;19.152;2023-03-25T03:44:13;97137.46;;;11.96;60.12
41306;BME280;27051;50.376;19.152;2023-03-25T03:46:54;97138.91;;;11.93;59.99
41306;BME280;27051;50.376;19.152;2023-03-25T03:49:31;97137.68;;;11.86;60.04
41306;BME280;27051;50.376;19.152;2023-03-25T03:52:06;97139.02;;;11.83;60.04
41306;BME280;27051;50.376;19.152;2023-03-25T03:54:43;97134.66;;;11.78;59.98
41306;BME280;27051;50.376;19.152;2023-03-25T03:57:17;97131.56;;;11.75;59.99
41306;BME280;27051;50.376;19.152;2023-03-25T03:59:52;97128.89;;;11.69;60.09
41306;BME280;27051;50.376;19.152;2023-03-25T04:02:23;97128.61;;;11.66;60.03
41306;BME280;27051;50.376;19.152;2023-03-25T04:04:51;97132.66;;;11.63;59.97
41306;BME280;27051;50.376;19.152;2023-03-25T04:07:22;97132.96;;;11.56;60.09
41306;BME280;27051;50.376;19.152;2023-03-25T04:10:04;97134.80;;;11.54;60.14
41306;BME280;27051;50.376;19.152;2023-03-25T04:12:36;97136.19;;;11.54;60.17
41306;BME280;27051;50.376;19.152;2023-03-25T04:15:07;97132.40;;;11.61;60.11
41306;BME280;27051;50.376;19.152;2023-03-25T04:17:37;97126.11;;;11.62;60.06
41306;BME280;27051;50.376;19.152;2023-03-25T04:20:04;97127.27;;;11.63;60.17
41306;BME280;27051;50.376;19.152;2023-03-25T04:22:32;97127.18;;;11.61;60.01
41306;BME280;27051;50.376;19.152;2023-03-25T04:24:59;97126.56;;;11.61;60.03
41306;BME280;27051;50.376;19.152;2023-03-25T04:27:25;97129.20;;;11.56;60.06
41306;BME280;27051;50.376;19.152;2023-03-25T04:29:53;97124.65;;;11.54;60.07
41306;BME280;27051;50.376;19.152;2023-03-25T04:32:24;97124.94;;;11.52;60.13
41306;BME280;27051;50.376;19.152;2023-03-25T04:34:50;97129.98;;;11.50;60.04
41306;BME280;27051;50.376;19.152;2023-03-25T04:37:17;97133.06;;;11.49;59.94
41306;BME280;27051;50.376;19.152;2023-03-25T04:39:43;97129.29;;;11.49;59.94
41306;BME280;27051;50.376;19.152;2023-03-25T04:42:10;97134.17;;;11.46;60.02
41306;BME280;27051;50.376;19.152;2023-03-25T04:44:36;97137.42;;;11.41;59.97
41306;BME280;27051;50.376;19.152;2023-03-25T04:47:02;97137.36;;;11.36;59.92
41306;BME280;27051;50.376;19.152;2023-03-25T04:49:29;97135.53;;;11.24;59.98
41306;BME280;27051;50.376;19.152;2023-03-25T04:51:56;97138.54;;;11.19;60.15
41306;BME280;27051;50.376;19.152;2023-03-25T04:54:23;97145.55;;;11.20;60.15
41306;BME280;27051;50.376;19.152;2023-03-25T04:56:50;97147.71;;;11.27;60.10
41306;BME280;27051;50.376;19.152;2023-03-25T04:59:18;97146.80;;;11.27;59.99
41306;BME280;27051;50.376;19.152;2023-03-25T05:01:48;97154.64;;;11.27;60.02
41306;BME280;27051;50.376;19.152;2023-03-25T05:04:15;97151.28;;;11.30;59.97
41306;BME280;27051;50.376;19.152;2023-03-25T05:06:48;97154.14;;;11.31;60.01
41306;BME280;27051;50.376;19.152;2023-03-25T05:09:19;97152.76;;;11.30;59.90
41306;BME280;27051;50.376;19.152;2023-03-25T05:11:47;97161.18;;;11.29;59.93
41306;BME280;27051;50.376;19.152;2023-03-25T05:14:17;97160.16;;;11.26;59.90
41306;BME280;27051;50.376;19.152;2023-03-25T05:16:45;97158.19;;;11.23;59.92
41306;BME280;27051;50.376;19.152;2023-03-25T05:19:23;97160.47;;;11.21;59.97
41306;BME280;27051;50.376;19.152;2023-03-25T05:21:51;97158.69;;;11.19;59.97
41306;BME280;27051;50.376;19.152;2023-03-25T05:24:18;97160.98;;;11.13;60.06
41306;BME280;27051;50.376;19.152;2023-03-25T05:26:46;97161.21;;;11.14;60.13
41306;BME280;27051;50.376;19.152;2023-03-25T05:29:13;97155.00;;;11.19;60.17
41306;BME280;27051;50.376;19.152;2023-03-25T05:31:42;97164.72;;;11.29;60.07
41306;BME280;27051;50.376;19.152;2023-03-25T05:34:10;97169.83;;;11.32;59.89
41306;BME280;27051;50.376;19.152;2023-03-25T05:36:37;97172.89;;;11.36;59.99
41306;BME280;27051;50.376;19.152;2023-03-25T05:39:04;97173.66;;;11.37;59.99
41306;BME280;27051;50.376;19.152;2023-03-25T05:41:31;97181.47;;;11.41;59.94
41306;BME280;27051;50.376;19.152;2023-03-25T05:44:01;97177.66;;;11.44;59.86
41306;BME280;27051;50.376;19.152;2023-03-25T05:46:28;97174.88;;;11.48;59.90
41306;BME280;27051;50.376;19.152;2023-03-25T05:48:55;97179.25;;;11.55;59.86
41306;BME280;27051;50.376;19.152;2023-03-25T05:51:24;97182.36;;;11.59;59.83
41306;BME280;27051;50.376;19.152;2023-03-25T05:54:00;97183.38;;;11.66;59.89
41306;BME280;27051;50.376;19.152;2023-03-25T05:56:27;97185.88;;;11.70;59.80
41306;BME280;27051;50.376;19.152;2023-03-25T05:58:54;97185.96;;;11.70;59.74
41306;BME280;27051;50.376;19.152;2023-03-25T06:01:21;97187.52;;;11.65;59.77
41306;BME280;27051;50.376;19.152;2023-03-25T06:03:47;97183.55;;;11.68;59.86
41306;BME280;27051;50.376;19.152;2023-03-25T06:06:15;97188.98;;;11.73;59.83
41306;BME280;27051;50.376;19.152;2023-03-25T06:08:42;97189.86;;;11.83;59.59
41306;BME280;27051;50.376;19.152;2023-03-25T06:11:09;97188.49;;;11.91;59.63
41306;BME280;27051;50.376;19.152;2023-03-25T06:13:36;97182.58;;;11.99;59.61
41306;BME280;27051;50.376;19.152;2023-03-25T06:16:04;97182.66;;;12.08;59.52
41306;BME280;27051;50.376;19.152;2023-03-25T06:18:31;97182.80;;;12.13;59.53
41306;BME280;27051;50.376;19.152;2023-03-25T06:20:58;97184.61;;;12.19;59.38
41306;BME280;27051;50.376;19.152;2023-03-25T06:23:24;97185.98;;;12.23;59.45
41306;BME280;27051;50.376;19.152;2023-03-25T06:25:51;97192.32;;;12.28;59.41
41306;BME280;27051;50.376;19.152;2023-03-25T06:28:33;97198.52;;;12.34;59.42
41306;BME280;27051;50.376;19.152;2023-03-25T06:31:00;97200.72;;;12.37;59.20
41306;BME280;27051;50.376;19.152;2023-03-25T06:33:27;97193.86;;;12.37;59.15
41306;BME280;27051;50.376;19.152;2023-03-25T06:35:53;97197.43;;;12.41;59.04
41306;BME280;27051;50.376;19.152;2023-03-25T06:38:21;97200.39;;;12.46;58.96
41306;BME280;27051;50.376;19.152;2023-03-25T06:40:48;97201.06;;;12.53;58.88
41306;BME280;27051;50.376;19.152;2023-03-25T06:43:16;97200.29;;;12.60;58.76
41306;BME280;27051;50.376;19.152;2023-03-25T06:45:42;97199.80;;;12.68;58.83
41306;BME280;27051;50.376;19.152;2023-03-25T06:48:09;97199.70;;;12.76;58.65
41306;BME280;27051;50.376;19.152;2023-03-25T06:50:35;97205.06;;;12.84;58.43
41306;BME280;27051;50.376;19.152;2023-03-25T06:53:03;97206.44;;;12.94;58.45
41306;BME280;27051;50.376;19.152;2023-03-25T06:55:31;97209.38;;;13.08;58.37
41306;BME280;27051;50.376;19.152;2023-03-25T06:57:58;97207.29;;;13.20;57.95
41306;BME280;27051;50.376;19.152;2023-03-25T07:00:27;97211.12;;;13.27;58.07
41306;BME280;27051;50.376;19.152;2023-03-25T07:02:57;97214.41;;;13.37;58.09
41306;BME280;27051;50.376;19.152;2023-03-25T07:05:24;97214.21;;;13.44;57.93
41306;BME280;27051;50.376;19.152;2023-03-25T07:07:50;97206.07;;;13.53;57.91
41306;BME280;27051;50.376;19.152;2023-03-25T07:10:17;97209.98;;;13.62;57.57
41306;BME280;27051;50.376;19.152;2023-03-25T07:12:43;97209.45;;;13.70;57.11
41306;BME280;27051;50.376;19.152;2023-03-25T07:15:10;97203.83;;;13.72;57.10
41306;BME280;27051;50.376;19.152;2023-03-25T07:17:36;97199.51;;;13.72;57.19
41306;BME280;27051;50.376;19.152;2023-03-25T07:20:06;97194.83;;;13.79;57.12
41306;BME280;27051;50.376;19.152;2023-03-25T07:22:32;97189.05;;;13.82;56.83
41306;BME280;27051;50.376;19.152;2023-03-25T07:24:59;97196.68;;;13.82;56.71
41306;BME280;27051;50.376;19.152;2023-03-25T07:27:25;97192.83;;;13.84;56.67
41306;BME280;27051;50.376;19.152;2023-03-25T07:29:52;97189.84;;;13.87;56.61
41306;BME280;27051;50.376;19.152;2023-03-25T07:32:18;97182.27;;;13.92;56.70
41306;BME280;27051;50.376;19.152;2023-03-25T07:34:45;97180.60;;;14.04;56.79
41306;BME280;27051;50.376;19.152;2023-03-25T07:37:11;97173.67;;;14.16;56.29
41306;BME280;27051;50.376;19.152;2023-03-25T07:39:37;97172.14;;;14.32;56.28
41306;BME280;27051;50.376;19.152;2023-03-25T07:42:04;97167.74;;;14.49;55.64
41306;BME280;27051;50.376;19.152;2023-03-25T07:44:31;97162.41;;;14.66;55.84
41306;BME280;27051;50.376;19.152;2023-03-25T07:46:57;97157.21;;;14.84;54.99
41306;BME280;27051;50.376;19.152;2023-03-25T07:49:23;97155.48;;;15.02;55.28
41306;BME280;27051;50.376;19.152;2023-03-25T07:51:50;97149.23;;;15.22;54.94
41306;BME280;27051;50.376;19.152;2023-03-25T07:54:16;97148.72;;;15.32;54.71
41306;BME280;27051;50.376;19.152;2023-03-25T07:56:43;97150.45;;;15.44;54.46
41306;BME280;27051;50.376;19.152;2023-03-25T07:59:09;97150.13;;;15.47;54.26
41306;BME280;27051;50.376;19.152;2023-03-25T08:01:36;97153.50;;;15.52;53.46
41306;BME280;27051;50.376;19.152;2023-03-25T08:04:02;97151.83;;;15.49;53.00
41306;BME280;27051;50.376;19.152;2023-03-25T08:06:28;97145.27;;;15.47;53.15
41306;BME280;27051;50.376;19.152;2023-03-25T08:08:55;97142.57;;;15.42;53.29
41306;BME280;27051;50.376;19.152;2023-03-25T08:11:21;97148.39;;;15.34;53.18
41306;BME280;27051;50.376;19.152;2023-03-25T08:13:48;97149.85;;;15.20;53.18
41306;BME280;27051;50.376;19.152;2023-03-25T08:16:14;97155.55;;;15.04;52.92
41306;BME280;27051;50.376;19.152;2023-03-25T08:18:41;97157.27;;;14.85;53.09
41306;BME280;27051;50.376;19.152;2023-03-25T08:21:07;97154.23;;;14.69;53.27
41306;BME280;27051;50.376;19.152;2023-03-25T08:23:33;97153.14;;;14.68;53.24
41306;BME280;27051;50.376;19.152;2023-03-25T08:26:00;97146.94;;;14.78;53.47
41306;BME280;27051;50.376;19.152;2023-03-25T08:28:27;97143.13;;;14.92;53.33
41306;BME280;27051;50.376;19.152;2023-03-25T08:30:54;97143.08;;;15.10;53.21
41306;BME280;27051;50.376;19.152;2023-03-25T08:33:21;97144.26;;;15.26;52.89
41306;BME280;27051;50.376;19.152;2023-03-25T08:35:48;97143.19;;;15.43;52.42
41306;BME280;27051;50.376;19.152;2023-03-25T08:38:15;97138.02;;;15.54;52.32
41306;BME280;27051;50.376;19.152;2023-03-25T08:40:42;97136.40;;;15.70;51.80
41306;BME280;27051;50.376;19.152;2023-03-25T08:43:09;97136.17;;;15.85;51.41
41306;BME280;27051;50.376;19.152;2023-03-25T08:45:35;97133.68;;;15.99;51.58
41306;BME280;27051;50.376;19.152;2023-03-25T08:48:02;97134.52;;;16.22;50.79
41306;BME280;27051;50.376;19.152;2023-03-25T08:50:29;97134.67;;;16.42;50.81
41306;BME280;27051;50.376;19.152;2023-03-25T08:52:56;97139.33;;;16.59;50.24
41306;BME280;27051;50.376;19.152;2023-03-25T08:55:24;97143.42;;;16.68;49.59
41306;BME280;27051;50.376;19.152;2023-03-25T08:57:50;97146.07;;;16.75;49.56
41306;BME280;27051;50.376;19.152;2023-03-25T09:00:17;97145.39;;;16.74;48.90
41306;BME280;27051;50.376;19.152;2023-03-25T09:02:44;97139.50;;;16.72;48.86
41306;BME280;27051;50.376;19.152;2023-03-25T09:05:11;97141.35;;;16.75;48.84
41306;BME280;27051;50.376;19.152;2023-03-25T09:07:38;97143.55;;;16.82;48.09
41306;BME280;27051;50.376;19.152;2023-03-25T09:10:05;97142.36;;;16.92;49.07
41306;BME280;27051;50.376;19.152;2023-03-25T09:12:32;97144.37;;;17.07;47.76
41306;BME280;27051;50.376;19.152;2023-03-25T09:14:58;97139.42;;;17.12;46.62
41306;BME280;27051;50.376;19.152;2023-03-25T09:17:25;97135.70;;;17.12;47.58
41306;BME280;27051;50.376;19.152;2023-03-25T09:19:51;97136.54;;;17.26;47.85
41306;BME280;27051;50.376;19.152;2023-03-25T09:22:18;97137.80;;;17.45;47.31
41306;BME280;27051;50.376;19.152;2023-03-25T09:24:44;97137.70;;;17.65;46.43
41306;BME280;27051;50.376;19.152;2023-03-25T09:27:11;97132.90;;;17.81;45.71
41306;BME280;27051;50.376;19.152;2023-03-25T09:29:40;97131.63;;;18.05;45.47
41306;BME280;27051;50.376;19.152;2023-03-25T09:32:06;97128.73;;;18.26;45.68
41306;BME280;27051;50.376;19.152;2023-03-25T09:34:33;97123.91;;;18.51;45.46
41306;BME280;27051;50.376;19.152;2023-03-25T09:36:59;97123.24;;;18.72;45.18
41306;BME280;27051;50.376;19.152;2023-03-25T09:39:26;97121.50;;;19.11;45.22
41306;BME280;27051;50.376;19.152;2023-03-25T09:45:13;97113.91;;;20.28;43.18
41306;BME280;27051;50.376;19.152;2023-03-25T09:47:51;97116.01;;;20.25;43.00
41306;BME280;27051;50.376;19.152;2023-03-25T09:50:20;97116.50;;;19.91;42.57
41306;BME280;27051;50.376;19.152;2023-03-25T09:53:02;97116.81;;;19.84;42.57
41306;BME280;27051;50.376;19.152;2023-03-25T09:55:33;97113.44;;;20.22;43.03
41306;BME280;27051;50.376;19.152;2023-03-25T09:58:43;97102.77;;;20.47;41.38
41306;BME280;27051;50.376;19.152;2023-03-25T10:01:37;97103.95;;;20.78;41.34
41306;BME280;27051;50.376;19.152;2023-03-25T10:09:59;97085.67;;;20.38;40.63
41306;BME280;27051;50.376;19.152;2023-03-25T10:12:32;97089.36;;;19.82;40.29
41306;BME280;27051;50.376;19.152;2023-03-25T10:15:09;97100.73;;;19.23;40.90
41306;BME280;27051;50.376;19.152;2023-03-25T10:20:56;97113.13;;;18.26;42.21
41306;BME280;27051;50.376;19.152;2023-03-25T10:23:40;97119.01;;;17.63;42.93
41306;BME280;27051;50.376;19.152;2023-03-25T10:26:27;97121.94;;;16.85;44.03
41306;BME280;27051;50.376;19.152;2023-03-25T10:29:03;97115.59;;;16.16;44.54
41306;BME280;27051;50.376;19.152;2023-03-25T10:31:33;97110.30;;;15.74;45.23
41306;BME280;27051;50.376;19.152;2023-03-25T10:34:07;97109.69;;;15.44;45.72
41306;BME280;27051;50.376;19.152;2023-03-25T10:36:46;97111.67;;;15.29;46.41
41306;BME280;27051;50.376;19.152;2023-03-25T10:39:17;97108.14;;;15.06;46.85
41306;BME280;27051;50.376;19.152;2023-03-25T10:41:50;97113.55;;;14.80;47.67
41306;BME280;27051;50.376;19.152;2023-03-25T10:44:20;97129.50;;;14.47;48.24
41306;BME280;27051;50.376;19.152;2023-03-25T10:46:51;97135.85;;;14.16;48.73
41306;BME280;27051;50.376;19.152;2023-03-25T10:49:22;97139.05;;;13.89;49.10
41306;BME280;27051;50.376;19.152;2023-03-25T10:51:51;97138.39;;;13.64;49.61
41306;BME280;27051;50.376;19.152;2023-03-25T10:54:20;97139.06;;;13.55;49.44
41306;BME280;27051;50.376;19.152;2023-03-25T10:56:50;97125.88;;;13.53;50.58
41306;BME280;27051;50.376;19.152;2023-03-25T11:01:51;97093.27;;;13.75;49.51
41306;BME280;27051;50.376;19.152;2023-03-25T11:04:20;97090.41;;;14.47;50.09
41306;BME280;27051;50.376;19.152;2023-03-25T11:06:53;97089.41;;;16.00;49.54
41306;BME280;27051;50.376;19.152;2023-03-25T11:09:27;97083.06;;;18.02;48.16
41306;BME280;27051;50.376;19.152;2023-03-25T11:11:53;97075.00;;;19.98;46.50
41306;BME280;27051;50.376;19.152;2023-03-25T11:14:22;97075.16;;;21.65;45.13
41306;BME280;27051;50.376;19.152;2023-03-25T11:16:59;97071.83;;;23.26;43.92
41306;BME280;27051;50.376;19.152;2023-03-25T11:22:36;97058.35;;;25.09;40.81
41306;BME280;27051;50.376;19.152;2023-03-25T11:25:06;97050.91;;;25.94;40.71
41306;BME280;27051;50.376;19.152;2023-03-25T11:27:43;97051.45;;;26.95;39.29
41306;BME280;27051;50.376;19.152;2023-03-25T11:30:17;97051.44;;;27.95;38.12
41306;BME280;27051;50.376;19.152;2023-03-25T11:32:56;97043.74;;;28.98;36.99
41306;BME280;27051;50.376;19.152;2023-03-25T11:35:25;97033.77;;;30.00;36.25
41306;BME280;27051;50.376;19.152;2023-03-25T11:37:57;97026.45;;;30.97;35.68
41306;BME280;27051;50.376;19.152;2023-03-25T11:40:26;97022.48;;;32.12;34.45
41306;BME280;27051;50.376;19.152;2023-03-25T11:42:55;97021.13;;;33.04;32.69
41306;BME280;27051;50.376;19.152;2023-03-25T11:45:25;97015.67;;;33.24;30.39
41306;BME280;27051;50.376;19.152;2023-03-25T11:47:57;97010.94;;;33.28;29.65
41306;BME280;27051;50.376;19.152;2023-03-25T11:50:27;97010.02;;;33.42;28.48
41306;BME280;27051;50.376;19.152;2023-03-25T11:52:59;97003.46;;;33.26;27.91
41306;BME280;27051;50.376;19.152;2023-03-25T11:55:53;97004.14;;;32.69;28.21
41306;BME280;27051;50.376;19.152;2023-03-25T11:58:19;97003.29;;;31.62;27.92
41306;BME280;27051;50.376;19.152;2023-03-25T12:00:49;97003.73;;;31.08;27.55
41306;BME280;27051;50.376;19.152;2023-03-25T12:03:21;97006.70;;;30.58;28.10
41306;BME280;27051;50.376;19.152;2023-03-25T12:06:20;97007.86;;;29.27;28.05
41306;BME280;27051;50.376;19.152;2023-03-25T12:12:17;97011.60;;;25.93;29.09
41306;BME280;27051;50.376;19.152;2023-03-25T12:14:53;97011.48;;;24.16;29.89
41306;BME280;27051;50.376;19.152;2023-03-25T12:20:28;97012.55;;;22.06;31.20
41306;BME280;27051;50.376;19.152;2023-03-25T12:26:26;97018.34;;;20.31;33.11
41306;BME280;27051;50.376;19.152;2023-03-25T12:29:12;97029.70;;;19.33;34.73
41306;BME280;27051;50.376;19.152;2023-03-25T12:32:13;97039.81;;;18.31;36.06
41306;BME280;27051;50.376;19.152;2023-03-25T12:35:04;97035.17;;;17.41;36.98
41306;BME280;27051;50.376;19.152;2023-03-25T12:37:58;97032.35;;;17.03;37.88
41306;BME280;27051;50.376;19.152;2023-03-25T12:43:47;97033.23;;;16.28;39.47
41306;BME280;27051;50.376;19.152;2023-03-25T12:49:45;97046.95;;;15.56;41.01
41306;BME280;27051;50.376;19.152;2023-03-25T12:55:14;97048.38;;;15.07;40.72
41306;BME280;27051;50.376;19.152;2023-03-25T13:06:29;97025.16;;;19.51;39.46
41306;BME280;27051;50.376;19.152;2023-03-25T13:09:11;97019.73;;;21.74;37.69
41306;BME280;27051;50.376;19.152;2023-03-25T13:14:33;97024.54;;;25.21;35.20
41306;BME280;27051;50.376;19.152;2023-03-25T13:17:06;97021.38;;;27.37;34.05
41306;BME280;27051;50.376;19.152;2023-03-25T13:19:37;97011.95;;;29.08;32.87
41306;BME280;27051;50.376;19.152;2023-03-25T13:22:21;97011.75;;;29.73;30.92
41306;BME280;27051;50.376;19.152;2023-03-25T13:25:00;97008.80;;;31.13;30.61
41306;BME280;27051;50.376;19.152;2023-03-25T13:27:33;97008.48;;;32.70;29.53
41306;BME280;27051;50.376;19.152;2023-03-25T13:30:02;96999.23;;;33.93;28.21
41306;BME280;27051;50.376;19.152;2023-03-25T13:32:45;96990.77;;;35.02;27.36
41306;BME280;27051;50.376;19.152;2023-03-25T13:35:18;96987.77;;;35.70;26.45
41306;BME280;27051;50.376;19.152;2023-03-25T13:37:54;96982.30;;;35.15;26.15
41306;BME280;27051;50.376;19.152;2023-03-25T13:40:33;96979.42;;;33.79;26.32
41306;BME280;27051;50.376;19.152;2023-03-25T13:43:11;96979.89;;;31.86;26.37
41306;BME280;27051;50.376;19.152;2023-03-25T13:45:44;96982.60;;;29.77;26.46
41306;BME280;27051;50.376;19.152;2023-03-25T13:48:18;96984.88;;;28.09;27.36
41306;BME280;27051;50.376;19.152;2023-03-25T13:50:46;96990.55;;;26.83;27.81
41306;BME280;27051;50.376;19.152;2023-03-25T14:12:39;96978.63;;;20.81;30.48
41306;BME280;27051;50.376;19.152;2023-03-25T14:15:13;96977.36;;;20.18;30.98
41306;BME280;27051;50.376;19.152;2023-03-25T14:17:43;96970.83;;;20.24;31.19
41306;BME280;27051;50.376;19.152;2023-03-25T14:20:10;96971.39;;;20.58;31.13
41306;BME280;27051;50.376;19.152;2023-03-25T14:22:45;96973.14;;;20.99;30.98
41306;BME280;27051;50.376;19.152;2023-03-25T14:25:27;96971.95;;;21.18;30.86
41306;BME280;27051;50.376;19.152;2023-03-25T14:28:00;96973.64;;;21.60;31.19
41306;BME280;27051;50.376;19.152;2023-03-25T14:30:27;96968.77;;;22.06;30.81
41306;BME280;27051;50.376;19.152;2023-03-25T14:32:55;96970.94;;;21.93;30.59
41306;BME280;27051;50.376;19.152;2023-03-25T14:43:25;96975.36;;;20.05;31.11
41306;BME280;27051;50.376;19.152;2023-03-25T14:48:33;96982.17;;;18.99;31.61
41306;BME280;27051;50.376;19.152;2023-03-25T14:53:39;96987.20;;;18.37;32.42
41306;BME280;27051;50.376;19.152;2023-03-25T14:56:15;96983.97;;;18.39;32.86
41306;BME280;27051;50.376;19.152;2023-03-25T14:58:43;96987.86;;;18.58;32.71
41306;BME280;27051;50.376;19.152;2023-03-25T15:01:13;96994.10;;;18.34;32.70
41306;BME280;27051;50.376;19.152;2023-03-25T15:03:47;96993.66;;;17.96;33.30